ADDS METAR Data INFO
IDs: Format: Raw Decoded Include TAF

Data at: 2213 UTC 23 May 2018

KTLH 232153Z 14005KT 10SM -TSRA FEW022 SCT040CB BKN100 BKN250 23/22 A3005 RMK AO2 TSE30B48 SLP174 OCNL LTGIC S TS S MOV E P0052 T02330217